NCAR-RAP Real-Time Weather Data

Output produced by METARs form (26 May 2022  08:20 UTC)
found at http://weather.rap.ucar.edu/surface/
 
KMSN 260753Z AUTO 20007KT 10SM OVC011 18/17 A2971 RMK AO2 CIG 008V014 SLP060 P0001 T01780167
KMSN 260735Z AUTO 20007KT 10SM BKN011 18/17 A2971 RMK AO2 P0001 T01780167
KMSN 260653Z AUTO 19006KT 10SM OVC008 18/17 A2970 RMK AO2 RAE38 SLP056 P0000 T01830172
KMSN 260625Z AUTO 19007KT 9SM -RA BKN009 BKN100 18/18 A2970 RMK AO2 CIG 006V018 P0000 T01830178
KMSN 260553Z AUTO 18007KT 8SM -RA FEW018 FEW100 BKN120 18/18 A2970 RMK AO2 SLP055 P0013 60028 T01830178 10183 20161 401830111 58011
KMSN 260513Z AUTO 18006KT 5SM RA BR SCT004 BKN090 OVC110 18/18 A2971 RMK AO2 P0010 T01830178
KMSN 260504Z AUTO 17006G17KT 3SM RA BR BKN004 BKN049 OVC100 18/17 A2971 RMK AO2 P0008 T01780172
KMSN 260458Z AUTO 18008G17KT 150V210 1 3/4SM +RA BR BKN004 OVC040 18/17 A2972 RMK AO2 P0006 T01780167
KMSN 260453Z AUTO 14008KT 2SM VCTS +RA BR BKN002 OVC006 17/17 A2972 RMK AO2 RAB39 SLP065 P0006 T01720167
KMSN 260443Z AUTO 12006KT 2SM VCTS -RA BR OVC002 17/16 A2972 RMK AO2 RAB39 P0000 T01720161
KMSN 260437Z AUTO 00000KT 2SM BR OVC002 17/16 A2972 RMK AO2 T01670161
KMSN 260410Z AUTO 11004KT 1 1/4SM BR OVC002 17/16 A2973 RMK AO2 T01670161
KMSN 260353Z 07003KT 1/2SM R36/4000VP6000FT FG VV002 16/16 A2973 RMK AO2 SLP066 LAST T01610156
KMSN 260332Z 05003KT 1/2SM R36/P6000FT BR VV002 17/16 A2973 RMK AO2 SFC VIS 3/4 T01670156
KMSN 260325Z 00000KT 1SM R36/P6000FT BR OVC002 17/16 A2973 RMK AO2 SFC VIS 1 1/4 T01670156
KMSN 260314Z 07003KT 2 1/2SM BR OVC003 17/16 A2973 RMK AO2 TWR VIS 3 T01670156
KMSN 260253Z 05004KT 3SM BR OVC003 17/16 A2973 RMK AO2 SFC VIS 3 SLP069 60009 T01670156 58008
KMSN 260224Z 05003KT 3SM BR OVC004 16/15 A2974 RMK AO2 T01610150
KMSN 260213Z 00000KT 1 3/4SM BR BKN004 OVC160 16/15 A2975 RMK AO2 T01610150
KMSN 260208Z 00000KT 3SM BR BKN004 OVC160 16/15 A2975 RMK AO2 T01610150
KMSN 260153Z 00000KT 6SM BR SCT004 BKN070 OVC150 17/16 A2975 RMK AO2 RAB05E16 SLP073 P0000 T01670156
KMSN 260116Z 00000KT 4SM BR SCT003 OVC070 17/16 A2975 RMK AO2 RAB05E16 P0000 T01670156
KMSN 260053Z 11003KT 6SM BR BKN003 BKN044 OVC065 17/16 A2976 RMK AO2 RAE39 CIG 003V010 SLP076 P0009 T01670156
KMSN 260050Z 00000KT 5SM BR BKN003 17/16 A2976 RMK AO2 RAE39 P0009
KMSN 260014Z 00000KT 2SM R36/3500VP6000FT -RA BR BKN004 BKN018 OVC036 16/15 A2976 RMK AO2 P0006 T01610150
KMSN 252353Z 09004KT 1 1/4SM R36/3500VP6000FT +RA BR BKN005 OVC018 16/15 A2977 RMK AO2 TWR VIS 2 LTG DSNT S RAE03B42 SLP080 P0005 60075 T01610150 10161 20133 56013
KMSN 252351Z 09004KT 1 1/4SM R36/3500VP6000FT +RA BR BKN005 OVC013 16/15 A2977 RMK AO2 TWR VIS 2 LTG DSNT S RAE03B42 P0003
KMSN 252313Z 07004KT 10SM BKN006 OVC032 16/14 A2977 RMK AO2 RAE03 P0000 T01560144
KMSN 252253Z 07005KT 10SM -RA SCT006 BKN032 OVC041 15/14 A2978 RMK AO2 RAE30B48 SLP084 P0006 T01500144
KMSN 252248Z 07003KT 3SM -RA SCT006 OVC039 15/14 A2978 RMK AO2 SFC VIS 10 RAE30B48 P0006
KMSN 252239Z 07006KT 3SM BKN006 BKN024 OVC037 15/14 A2979 RMK AO2 SFC VIS 10 RAE30 P0006 T01500139
KMSN 252231Z 06006KT 3SM SCT005 BKN015 OVC039 15/14 A2979 RMK AO2 SFC VIS 8 RAE30 P0006 T01500139
KMSN 252222Z 07006KT 2SM -RA BR SCT006 BKN029 OVC045 15/14 A2979 RMK AO2 P0006 T01500139
KMSN 252217Z 09005KT 1 1/2SM R36/4000VP6000FT RA BR SCT006 BKN014 OVC055 15/14 A2980 RMK AO2 TWR VIS 2 P0005 T01500139
KMSN 252201Z 09005KT 2SM -RA BR SCT004 BKN028 OVC060 15/14 A2980 RMK AO2 SFC VIS 2 1/2 P0001 T01500139
KMSN 252153Z 10005KT 1SM R36/4000VP6000FT RA BR SCT005 BKN012 OVC028 14/14 A2980 RMK AO2 TWR VIS 1 1/2 SLP092 P0047 T01440139
KMSN 252141Z 08004KT 1 1/2SM R36/4000VP6000FT RA BR SCT005 BKN010 OVC050 14/13 A2980 RMK AO2 SFC VIS 1 3/4 P0035 T01440133
KMSN 252134Z 05007KT 1 1/2SM R36/4000VP6000FT +RA BR SCT005 BKN032 OVC045 14/13 A2979 RMK AO2 P0032 T01440133
KMSN 252053Z 09007KT 1 3/4SM R36/5500VP6000FT +RA BR OVC005 14/13 A2982 RMK AO2 TWR VIS 2 CIG 003V007 SLP098 P0014 60017 T01440133 58022
KMSN 252041Z 07005KT 1 3/4SM R36/6000VP6000FT +RA BR OVC005 14/13 A2982 RMK AO2 TWR VIS 2 CIG 003V008 P0009 T01440133
KMSN 252003Z 08006KT 2 1/2SM RA BR OVC004 14/13 A2984 RMK AO2 TWR VIS 3 P0002 T01440133
KMSN 251953Z 08005KT 3SM RA BR OVC004 14/13 A2984 RMK AO2 SLP105 P0002 T01440133
KMSN 251853Z 10005KT 6SM -RA BR OVC004 14/12 A2987 RMK AO2 SLP116 P0001 T01390122
KMSN 251810Z 10007KT 6SM -RA BR OVC004 13/12 A2988 RMK AO2 P0000 T01330122
KMSN 251753Z 10008KT 5SM -RA BR OVC005 13/12 A2989 RMK AO2 SLP122 P0002 60042 T01330117 10133 20111 58019
KMSN 251656Z 11008KT 8SM -RA BKN006 OVC013 13/11 A2991 RMK AO2 P0001 T01280111
KMSN 251653Z 10007KT 1SM R36/P6000FT -RA BR BKN006 OVC012 12/11 A2992 RMK AO2 SFC VIS 5 SLP132 P0035 T01220111
KMSN 251604Z 11008KT 1 1/2SM R36/2800VP6000FT +RA BR OVC006 12/11 A2993 RMK AO2 SFC VIS 1 3/4 P0002 T01170106
KMSN 251553Z 09009KT 5SM -RA BR OVC006 12/11 A2993 RMK AO2 SLP137 P0003 T01170106
KMSN 251453Z 09010KT 6SM -RA BR OVC009 12/10 A2994 RMK AO2 CIG 006V011 SLP141 P0002 60002 T01170100 58014
KMSN 251435Z 09008KT 2SM -RA BR BKN009 OVC014 11/10 A2995 RMK AO2 SFC VIS 3 CIG 006V012 P0002 T01110100
KMSN 251424Z 10010KT 2SM -RA BR SCT009 OVC015 12/09 A2995 RMK AO2 SFC VIS 3 P0001 T01170094
KMSN 251418Z 10007KT 3SM -RA BR FEW010 OVC016 12/10 A2996 RMK AO2 P0001 T01170100
KMSN 251407Z 10011G20KT 2SM -RA BR OVC018 12/09 A2996 RMK AO2 TWR VIS 3 P0000 T01170094
KMSN 251353Z 10011KT 3SM -RA OVC020 13/08 A2996 RMK AO2 SFC VIS 5 RAB30 SLP146 P0000 T01280083
KMSN 251253Z 09013G18KT 10SM OVC026 13/07 A2997 RMK AO2 SLP150 T01330072
KMSN 251221Z 09010KT 10SM BKN028 OVC080 13/07 A2997 RMK AO2 T01280067
KMSN 251153Z 08010KT 10SM FEW026 OVC090 13/07 A2998 RMK AO2 RAB1055E41 SLP154 P0000 60000 T01280067 10128 20111 56026
KMSN 251133Z 08009KT 10SM -RA SCT029 OVC095 12/07 A3000 RMK AO2 RAB1055 P0000 T01220072
KMSN 251120Z 08009KT 10SM -RA OVC029 12/07 A3000 RMK AO2 RAB1055 P0000 T01220067
KMSN 251053Z 08008KT 10SM OVC033 13/05 A3000 RMK AO2 SLP160 T01280050
KMSN 250953Z AUTO 05008KT 10SM OVC045 12/03 A3003 RMK AO2 RAB10E23 SLP169 P0000 T01220033
KMSN 250853Z AUTO 01007KT 10SM OVC050 12/02 A3006 RMK AO2 SLP181 T01170022 58010
KMSN 250753Z AUTO 32004KT 10SM OVC070 12/02 A3009 RMK AO2 SLP190 T01170022
KMSN 250653Z AUTO 07009KT 10SM OVC090 12/02 A3008 RMK AO2 SLP188 T01220022
KMSN 250553Z AUTO 08012KT 10SM OVC100 12/03 A3009 RMK AO2 SLP192 60000 T01220028 10150 20122 401780050 56019
KMSN 250453Z AUTO 07013G20KT 10SM OVC080 13/04 A3011 RMK AO2 SLP196 T01280039
KMSN 250353Z 07011KT 10SM FEW065 SCT120 OVC170 13/04 A3013 RMK AO2 RAB08E22 SLP204 LAST P0000 T01280044
KMSN 250253Z 07008KT 10SM BKN100 OVC150 13/03 A3015 RMK AO2 RAB02E18 SLP211 P0000 60000 T01330033 55006
KMSN 250153Z 07011KT 10SM FEW060 OVC100 14/03 A3014 RMK AO2 SLP208 T01390033
KMSN 250053Z 07010KT 10SM FEW065 OVC100 14/03 A3016 RMK AO2 SLP216 T01390033
KMSN 242353Z 06008KT 10SM BKN095 OVC150 15/04 A3017 RMK AO2 SLP219 60000 T01500044 10178 20150 58007
KMSN 242253Z 09011KT 10SM FEW046 OVC090 16/04 A3018 RMK AO2 RAB32E42 SLP223 P0000 T01560044
KMSN 242153Z 09011G18KT 10SM FEW048 BKN100 OVC160 17/06 A3019 RMK AO2 SLP226 T01670061
KMSN 242053Z 12011G18KT 10SM FEW048 OVC110 16/05 A3019 RMK AO2 SLP226 T01610050 55012
KMSN 241953Z 11012KT 10SM FEW047 BKN130 17/06 A3019 RMK AO2 SLP224 T01720061
KMSN 241853Z 11011KT 10SM SCT046 OVC140 17/06 A3021 RMK AO2 SLP232 T01670061
KMSN 241753Z 14012G17KT 10SM SCT044 OVC160 17/06 A3023 RMK AO2 SLP238 T01670061 10172 20078 58006
KMSN 241653Z 14009KT 10SM FEW045 FEW110 BKN150 16/06 A3024 RMK AO2 SLP243 T01560056
KMSN 241553Z 13004KT 10SM SCT043 OVC150 14/05 A3025 RMK AO2 SLP246 T01390050
KMSN 241453Z 11006KT 10SM SCT110 BKN150 BKN250 13/04 A3025 RMK AO2 SLP245 T01280044 58006
KMSN 241353Z 09006KT 10SM OVC110 12/02 A3026 RMK AO2 SLP248 T01170022
KMSN 241253Z 05005KT 10SM FEW050 BKN110 10/01 A3026 RMK AO2 SLP252 T01000011
KMSN 241153Z 35004KT 10SM BKN120 BKN160 08/03 A3026 RMK AO2 SLP252 T00780028 10083 20050 52006
KMSN 241053Z 35003KT 10SM BKN120 BKN160 BKN250 07/02 A3026 RMK AO2 SLP248 T00720022
KMSN 240953Z AUTO 00000KT 10SM CLR 08/02 A3025 RMK AO2 SLP246 T00780017
KMSN 240853Z AUTO 00000KT 10SM CLR 07/02 A3025 RMK AO2 SLP244 T00670017 58001